Terminal Aerodrome Forecast
Issued by NWS Des Moines, IA

Home | Current Version | Previous Version | Text Only | Print | Product List | Glossary On
Versions: 1 2 3 4 5 6 7 8 9 10 11 12 13 14 15 16 17 18 19 20 21 22 23 24 25 26 27 28 29 30 31 32
000
FTUS43 KDMX 022346
TAFDSM
TAF
KDSM 022346Z 0300/0324 11010KT P6SM OVC070
     FM030700 15015KT 4SM -FZDZ BR OVC012
     FM031400 25014KT 3SM -DZ BR OVC010
     FM031800 28020G28KT P6SM OVC025
     FM032200 31015G22KT P6SM OVC035=

USA.gov is the U.S. government's official web portal to all federal, state and local government web resources and services.